Time;durP1;ratioP1;P1;durP2;ratioP2;P2;SDS_P1;SDS_P2;PMS_P1;PMS_P2;Temp;Humidity;BMP_temperature;BMP_pressure;BME280_temperature;BME280_humidity;BME280_pressure;Samples;Min_cycle;Max_cycle;Signal;HPM_P1;HPM_P2
2023/04/03 00:01:50;;;;;;;;;;;20.70;47.60;;;;;;1561947;74;640;-61
2023/04/03 00:03:52;;;;;;;;;;;20.70;47.60;;;;;;1564750;74;1180;-61
2023/04/03 00:05:54;;;;;;;;;;;20.70;47.60;;;;;;1571873;74;723;-60
2023/04/03 00:07:56;;;;;;;;;;;20.70;47.50;;;;;;1513801;77;1907;-61
2023/04/03 00:09:58;;;;;;;;;;;20.60;47.40;;;;;;1531115;77;903;-61
2023/04/03 00:12:00;;;;;;;;;;;20.60;47.50;;;;;;1514708;77;668;-61
2023/04/03 00:14:02;;;;;;;;;;;20.70;47.50;;;;;;1520105;76;1578;-60
2023/04/03 00:16:04;;;;;;;;;;;20.70;47.60;;;;;;1512675;77;736;-59
2023/04/03 00:18:06;;;;;;;;;;;20.80;47.40;;;;;;1562108;74;733;-59
2023/04/03 00:20:08;;;;;;;;;;;20.80;47.40;;;;;;1566113;74;754;-60
2023/04/03 00:22:10;;;;;;;;;;;20.90;47.30;;;;;;1563061;74;772;-60
2023/04/03 00:24:12;;;;;;;;;;;20.80;47.20;;;;;;1564791;74;1157;-59
2023/04/03 00:26:14;;;;;;;;;;;20.90;47.30;;;;;;1566164;74;659;-59
2023/04/03 00:28:16;;;;;;;;;;;20.80;47.10;;;;;;1559815;74;1923;-60
2023/04/03 00:30:18;;;;;;;;;;;20.90;47.10;;;;;;1547555;74;748;-60
2023/04/03 00:32:20;;;;;;;;;;;20.80;47.00;;;;;;1551373;75;761;-60
2023/04/03 00:34:22;;;;;;;;;;;20.90;47.30;;;;;;1547590;75;1126;-59
2023/04/03 00:36:24;;;;;;;;;;;20.80;47.20;;;;;;1560987;74;698;-60
2023/04/03 00:38:26;;;;;;;;;;;20.90;47.20;;;;;;1554649;74;706;-59
2023/04/03 00:40:28;;;;;;;;;;;20.80;47.10;;;;;;1551260;74;728;-58
2023/04/03 00:42:30;;;;;;;;;;;20.80;47.00;;;;;;1557677;74;1526;-58
2023/04/03 00:44:36;;;;;;;;;;;20.90;47.10;;;;;;1560465;74;1120;-60
2023/04/03 00:46:38;;;;;;;;;;;20.90;47.20;;;;;;1566117;74;711;-59
2023/04/03 00:48:44;;;;;;;;;;;20.90;47.30;;;;;;1556095;74;1917;-60
2023/04/03 00:50:46;;;;;;;;;;;20.90;47.10;;;;;;1556291;74;712;-60
2023/04/03 00:52:48;;;;;;;;;;;20.90;47.00;;;;;;1563498;74;1191;-61
2023/04/03 00:54:50;;;;;;;;;;;20.90;47.10;;;;;;1559038;74;650;-60
2023/04/03 00:56:52;;;;;;;;;;;20.80;46.90;;;;;;1555476;74;1613;-60
2023/04/03 00:58:56;;;;;;;;;;;20.80;46.90;;;;;;1561057;74;776;-60
2023/04/03 01:00:58;;;;;;;;;;;20.90;46.90;;;;;;1552773;74;1115;-60
2023/04/03 01:03:00;;;;;;;;;;;20.90;46.90;;;;;;1553444;74;1184;-60
2023/04/03 01:05:02;;;;;;;;;;;20.90;46.90;;;;;;1560745;74;773;-60
2023/04/03 01:07:05;;;;;;;;;;;20.90;47.00;;;;;;1566933;74;718;-60
2023/04/03 01:09:07;;;;;;;;;;;20.90;46.90;;;;;;1561335;74;1037;-61
2023/04/03 01:11:09;;;;;;;;;;;20.90;47.30;;;;;;1557404;74;1481;-61
2023/04/03 01:13:21;;;;;;;;;;;20.80;47.10;;;;;;1569103;74;1138;-60
2023/04/03 01:15:24;;;;;;;;;;;20.80;46.90;;;;;;1552279;74;709;-61
2023/04/03 01:17:33;;;;;;;;;;;20.90;46.90;;;;;;1555540;74;728;-60
2023/04/03 01:19:35;;;;;;;;;;;20.90;46.90;;;;;;1564584;74;691;-62
2023/04/03 01:21:48;;;;;;;;;;;20.90;46.90;;;;;;1551933;74;665;-62
2023/04/03 01:23:54;;;;;;;;;;;20.90;46.90;;;;;;1561255;74;1603;-60
2023/04/03 01:25:56;;;;;;;;;;;20.90;46.80;;;;;;1556878;74;760;-60
2023/04/03 01:27:58;;;;;;;;;;;20.90;46.80;;;;;;1552569;74;1939;-61
2023/04/03 01:30:00;;;;;;;;;;;20.80;46.70;;;;;;1560589;74;751;-61
2023/04/03 01:32:02;;;;;;;;;;;20.90;46.80;;;;;;1561060;74;734;-61
2023/04/03 01:34:04;;;;;;;;;;;20.80;46.70;;;;;;1558764;74;1128;-60
2023/04/03 01:36:06;;;;;;;;;;;20.90;46.80;;;;;;1558185;74;733;-60
2023/04/03 01:38:08;;;;;;;;;;;20.90;46.80;;;;;;1564875;74;1518;-61
2023/04/03 01:40:10;;;;;;;;;;;20.90;46.80;;;;;;1577067;74;852;-61
2023/04/03 01:42:12;;;;;;;;;;;20.90;46.80;;;;;;1554492;74;705;-61
2023/04/03 01:44:14;;;;;;;;;;;20.90;46.80;;;;;;1555507;74;1146;-60
2023/04/03 01:46:16;;;;;;;;;;;20.90;46.80;;;;;;1561403;74;667;-61
2023/04/03 01:48:18;;;;;;;;;;;20.90;46.90;;;;;;1556055;74;1922;-61
2023/04/03 01:50:20;;;;;;;;;;;20.80;46.80;;;;;;1562973;74;655;-61
2023/04/03 01:52:22;;;;;;;;;;;20.80;46.80;;;;;;1567685;74;1521;-60
2023/04/03 01:54:23;;;;;;;;;;;20.80;46.80;;;;;;1548721;74;1172;-60
2023/04/03 01:56:26;;;;;;;;;;;20.80;46.70;;;;;;1552528;74;832;-61
2023/04/03 01:58:28;;;;;;;;;;;20.80;46.80;;;;;;1567783;74;687;-60
2023/04/03 02:00:30;;;;;;;;;;;20.80;46.70;;;;;;1564208;74;707;-61
2023/04/03 02:02:32;;;;;;;;;;;20.80;46.80;;;;;;1558055;74;617;-60
2023/04/03 02:04:34;;;;;;;;;;;20.80;46.80;;;;;;1562666;74;1138;-62
2023/04/03 02:06:36;;;;;;;;;;;20.90;46.90;;;;;;1561848;74;1314;-61
2023/04/03 02:08:38;;;;;;;;;;;20.80;46.80;;;;;;1568469;74;1928;-62
2023/04/03 02:10:39;;;;;;;;;;;20.80;46.80;;;;;;1551282;74;742;-61
2023/04/03 02:12:41;;;;;;;;;;;20.80;46.80;;;;;;1566604;74;699;-61
2023/04/03 02:14:43;;;;;;;;;;;20.80;46.80;;;;;;1567138;74;1102;-61
2023/04/03 02:16:45;;;;;;;;;;;20.80;46.80;;;;;;1556378;74;723;-59
2023/04/03 02:18:47;;;;;;;;;;;20.80;46.80;;;;;;1562459;74;688;-60
2023/04/03 02:20:49;;;;;;;;;;;20.80;46.80;;;;;;1552865;74;1342;-60
2023/04/03 02:22:51;;;;;;;;;;;20.80;46.90;;;;;;1563447;74;1143;-60
2023/04/03 02:24:53;;;;;;;;;;;20.80;46.90;;;;;;1554811;74;676;-60
2023/04/03 02:26:55;;;;;;;;;;;20.70;46.90;;;;;;1558278;74;656;-60
2023/04/03 02:28:57;;;;;;;;;;;20.80;46.80;;;;;;1555882;74;1926;-60
2023/04/03 02:30:58;;;;;;;;;;;20.80;46.90;;;;;;1555848;74;710;-60
2023/04/03 02:33:00;;;;;;;;;;;20.80;47.10;;;;;;1561289;74;1138;-60
2023/04/03 02:35:02;;;;;;;;;;;20.80;47.20;;;;;;1563893;74;1616;-60
2023/04/03 02:37:05;;;;;;;;;;;20.80;47.30;;;;;;1561364;74;981;-61
2023/04/03 02:39:07;;;;;;;;;;;20.80;47.30;;;;;;1562933;74;954;-61
2023/04/03 02:41:10;;;;;;;;;;;20.80;47.30;;;;;;1561322;74;724;-61
2023/04/03 02:43:11;;;;;;;;;;;20.80;47.40;;;;;;1559532;74;1124;-60
2023/04/03 02:45:13;;;;;;;;;;;20.80;47.60;;;;;;1568144;74;728;-60
2023/04/03 02:47:16;;;;;;;;;;;20.80;47.50;;;;;;1565237;74;727;-60
2023/04/03 02:49:18;;;;;;;;;;;20.80;47.40;;;;;;1562739;74;1926;-60
2023/04/03 02:51:20;;;;;;;;;;;20.80;47.40;;;;;;1540269;76;681;-60
2023/04/03 02:53:22;;;;;;;;;;;20.80;47.30;;;;;;1527389;76;1136;-59
2023/04/03 02:55:24;;;;;;;;;;;20.80;47.30;;;;;;1538638;76;744;-61
2023/04/03 02:57:26;;;;;;;;;;;20.80;47.40;;;;;;1531007;76;698;-60
2023/04/03 02:59:28;;;;;;;;;;;20.80;47.40;;;;;;1544139;76;644;-60
2023/04/03 03:01:32;;;;;;;;;;;20.80;47.30;;;;;;1533836;76;724;-60
2023/04/03 03:03:33;;;;;;;;;;;20.80;47.30;;;;;;1536469;76;1671;-61
2023/04/03 03:05:35;;;;;;;;;;;20.80;47.40;;;;;;1525194;76;651;-59
2023/04/03 03:07:37;;;;;;;;;;;20.80;47.50;;;;;;1540399;76;760;-60
2023/04/03 03:09:39;;;;;;;;;;;20.80;47.50;;;;;;1535961;76;1950;-60
2023/04/03 03:11:41;;;;;;;;;;;20.80;47.60;;;;;;1537287;76;750;-59
2023/04/03 03:13:43;;;;;;;;;;;20.80;47.50;;;;;;1529748;76;1220;-60
2023/04/03 03:15:45;;;;;;;;;;;20.80;47.60;;;;;;1534488;76;1560;-60
2023/04/03 03:17:47;;;;;;;;;;;20.80;47.50;;;;;;1534608;76;699;-61
2023/04/03 03:19:49;;;;;;;;;;;20.80;47.60;;;;;;1539186;76;599;-61
2023/04/03 03:21:51;;;;;;;;;;;20.80;47.60;;;;;;1528315;76;736;-60
2023/04/03 03:23:53;;;;;;;;;;;20.80;48.00;;;;;;1531770;76;1137;-61
2023/04/03 03:25:56;;;;;;;;;;;20.70;47.60;;;;;;1533205;76;682;-62
2023/04/03 03:27:58;;;;;;;;;;;20.70;47.70;;;;;;1523209;76;1926;-60
2023/04/03 03:30:00;;;;;;;;;;;20.70;47.60;;;;;;1541216;76;1575;-60
2023/04/03 03:32:01;;;;;;;;;;;20.80;47.40;;;;;;1527214;76;728;-60
2023/04/03 03:34:03;;;;;;;;;;;20.90;47.50;;;;;;1540319;76;1147;-60
2023/04/03 03:36:06;;;;;;;;;;;20.80;47.30;;;;;;1541982;76;743;-59
2023/04/03 03:38:07;;;;;;;;;;;20.80;47.20;;;;;;1545012;76;728;-59
2023/04/03 03:40:11;;;;;;;;;;;20.80;47.40;;;;;;1540654;76;683;-61
2023/04/03 03:42:13;;;;;;;;;;;20.80;47.40;;;;;;1526473;76;771;-60
2023/04/03 03:44:15;;;;;;;;;;;20.80;47.30;;;;;;1528162;76;1152;-60
2023/04/03 03:46:17;;;;;;;;;;;20.80;47.30;;;;;;1529523;76;675;-59
2023/04/03 03:48:19;;;;;;;;;;;20.90;47.30;;;;;;1525101;76;1941;-60
2023/04/03 03:50:21;;;;;;;;;;;20.80;47.30;;;;;;1543088;76;1109;-60
2023/04/03 03:52:23;;;;;;;;;;;20.80;47.20;;;;;;1539847;76;677;-60
2023/04/03 03:54:25;;;;;;;;;;;20.80;47.20;;;;;;1544351;76;1155;-60
2023/04/03 03:56:27;;;;;;;;;;;20.80;47.10;;;;;;1542976;76;735;-61
2023/04/03 03:58:28;;;;;;;;;;;20.80;47.10;;;;;;1530089;76;1576;-61
2023/04/03 04:00:30;;;;;;;;;;;20.80;47.10;;;;;;1532044;76;667;-61
2023/04/03 04:02:32;;;;;;;;;;;20.80;47.10;;;;;;1534905;76;728;-61
2023/04/03 04:04:34;;;;;;;;;;;20.80;47.10;;;;;;1537992;76;1111;-59
2023/04/03 04:06:36;;;;;;;;;;;20.90;47.30;;;;;;1534991;76;709;-59
2023/04/03 04:08:38;;;;;;;;;;;20.80;47.20;;;;;;1534407;76;1949;-59
2023/04/03 04:10:40;;;;;;;;;;;20.80;47.20;;;;;;1528418;76;741;-60
2023/04/03 04:12:42;;;;;;;;;;;20.80;47.20;;;;;;1530641;76;1171;-60
2023/04/03 04:14:46;;;;;;;;;;;20.80;47.20;;;;;;1531666;76;1136;-60
2023/04/03 04:16:47;;;;;;;;;;;20.80;47.30;;;;;;1534828;76;1141;-60
2023/04/03 04:18:49;;;;;;;;;;;20.80;47.40;;;;;;1532481;76;681;-60
2023/04/03 04:20:51;;;;;;;;;;;20.80;47.30;;;;;;1540603;76;670;-60
2023/04/03 04:22:53;;;;;;;;;;;20.80;47.30;;;;;;1536778;76;1134;-59
2023/04/03 04:24:55;;;;;;;;;;;20.80;47.30;;;;;;1536931;76;676;-60
2023/04/03 04:26:57;;;;;;;;;;;20.80;47.60;;;;;;1531071;76;1282;-60
2023/04/03 04:28:59;;;;;;;;;;;20.80;47.40;;;;;;1537112;76;1916;-60
2023/04/03 04:31:00;;;;;;;;;;;20.70;47.50;;;;;;1536329;76;754;-60
2023/04/03 04:33:02;;;;;;;;;;;20.80;47.50;;;;;;1531548;76;1150;-61
2023/04/03 04:35:05;;;;;;;;;;;20.80;47.40;;;;;;1534564;76;594;-61
2023/04/03 04:37:07;;;;;;;;;;;20.70;47.30;;;;;;1535256;76;863;-60
2023/04/03 04:39:09;;;;;;;;;;;20.80;47.20;;;;;;1539597;76;748;-62
2023/04/03 04:41:11;;;;;;;;;;;20.80;47.50;;;;;;1540348;76;1567;-62
2023/04/03 04:43:14;;;;;;;;;;;20.80;47.60;;;;;;1534496;76;1154;-62
2023/04/03 04:45:16;;;;;;;;;;;20.80;47.50;;;;;;1536804;76;768;-62
2023/04/03 04:47:18;;;;;;;;;;;20.80;47.30;;;;;;1529178;76;814;-61
2023/04/03 04:49:20;;;;;;;;;;;20.70;47.40;;;;;;1539428;76;1940;-62
2023/04/03 04:51:21;;;;;;;;;;;20.90;47.50;;;;;;1537694;75;1121;-62
2023/04/03 04:53:23;;;;;;;;;;;20.70;47.80;;;;;;1548708;75;1177;-61
2023/04/03 04:55:25;;;;;;;;;;;20.70;48.10;;;;;;1545137;75;1535;-60
2023/04/03 04:57:27;;;;;;;;;;;20.70;48.20;;;;;;1543886;75;664;-61
2023/04/03 04:59:29;;;;;;;;;;;20.70;48.10;;;;;;1556675;75;791;-62
2023/04/03 05:01:31;;;;;;;;;;;20.80;47.90;;;;;;1556526;75;727;-62
2023/04/03 05:03:33;;;;;;;;;;;20.80;47.90;;;;;;1552975;75;1102;-62
2023/04/03 05:05:35;;;;;;;;;;;20.90;47.90;;;;;;1547077;75;701;-61
2023/04/03 05:07:37;;;;;;;;;;;20.80;47.90;;;;;;1557691;75;766;-61
2023/04/03 05:09:41;;;;;;;;;;;20.90;47.80;;;;;;1554360;75;1948;-61
2023/04/03 05:11:42;;;;;;;;;;;20.90;47.80;;;;;;1550135;75;1122;-60
2023/04/03 05:13:44;;;;;;;;;;;20.80;48.00;;;;;;1556633;75;1167;-61
2023/04/03 05:15:46;;;;;;;;;;;20.90;48.00;;;;;;1551171;75;777;-60
2023/04/03 05:17:48;;;;;;;;;;;20.90;47.70;;;;;;1552002;75;683;-60
2023/04/03 05:19:50;;;;;;;;;;;20.90;47.80;;;;;;1559240;75;737;-61
2023/04/03 05:21:52;;;;;;;;;;;20.90;47.70;;;;;;1552029;75;654;-60
2023/04/03 05:23:54;;;;;;;;;;;20.90;47.80;;;;;;1559156;75;1556;-60
2023/04/03 05:25:56;;;;;;;;;;;21.00;47.80;;;;;;1554523;75;742;-63
2023/04/03 05:27:58;;;;;;;;;;;21.00;47.70;;;;;;1558564;75;725;-61
2023/04/03 05:30:00;;;;;;;;;;;20.90;47.80;;;;;;1554964;75;1932;-62
2023/04/03 05:32:01;;;;;;;;;;;21.00;47.80;;;;;;1556655;75;707;-62
2023/04/03 05:34:03;;;;;;;;;;;21.00;48.10;;;;;;1556207;75;1094;-63
2023/04/03 05:36:05;;;;;;;;;;;20.90;47.90;;;;;;1558814;75;718;-61
2023/04/03 05:38:07;;;;;;;;;;;20.90;47.80;;;;;;1556183;75;1413;-61
2023/04/03 05:40:09;;;;;;;;;;;21.00;47.60;;;;;;1552353;75;1427;-60
2023/04/03 05:42:12;;;;;;;;;;;20.90;47.50;;;;;;1553690;75;1233;-60
2023/04/03 05:44:13;;;;;;;;;;;20.90;47.30;;;;;;1545026;75;1319;-61
2023/04/03 05:46:16;;;;;;;;;;;21.00;47.20;;;;;;1560642;74;997;-61
2023/04/03 05:48:18;;;;;;;;;;;21.00;47.00;;;;;;1555376;75;1505;-60
2023/04/03 05:50:20;;;;;;;;;;;20.90;47.00;;;;;;1563088;75;1935;-61
2023/04/03 05:52:23;;;;;;;;;;;21.00;46.90;;;;;;1556177;75;1526;-62
2023/04/03 05:54:25;;;;;;;;;;;21.00;46.90;;;;;;1556295;75;1538;-62
2023/04/03 05:56:27;;;;;;;;;;;21.00;47.10;;;;;;1558181;75;1509;-62
2023/04/03 05:58:29;;;;;;;;;;;21.00;47.60;;;;;;1554532;75;1520;-62
2023/04/03 06:00:31;;;;;;;;;;;21.00;47.60;;;;;;1556503;74;1114;-62
2023/04/03 06:02:33;;;;;;;;;;;21.00;47.50;;;;;;1549583;75;1678;-62
2023/04/03 06:04:35;;;;;;;;;;;21.00;47.50;;;;;;1553748;75;1506;-61
2023/04/03 06:06:38;;;;;;;;;;;21.00;47.40;;;;;;1556274;75;1567;-63
2023/04/03 06:08:40;;;;;;;;;;;21.00;47.40;;;;;;1557807;75;1522;-63
2023/04/03 06:10:42;;;;;;;;;;;21.00;47.40;;;;;;1561338;75;1942;-63
2023/04/03 06:12:44;;;;;;;;;;;21.00;47.30;;;;;;1556182;75;1234;-63
2023/04/03 06:14:46;;;;;;;;;;;21.00;47.30;;;;;;1554346;75;1400;-62
2023/04/03 06:16:48;;;;;;;;;;;21.00;47.30;;;;;;1563062;74;1475;-64
2023/04/03 06:18:50;;;;;;;;;;;21.00;47.30;;;;;;1559760;75;1384;-62
2023/04/03 06:20:52;;;;;;;;;;;21.00;47.30;;;;;;1554695;75;1472;-62
2023/04/03 06:22:54;;;;;;;;;;;21.00;47.20;;;;;;1553755;75;1487;-62
2023/04/03 06:24:56;;;;;;;;;;;21.00;47.10;;;;;;1559271;75;1495;-62
2023/04/03 06:26:58;;;;;;;;;;;21.00;47.10;;;;;;1554394;75;1460;-62
2023/04/03 06:28:59;;;;;;;;;;;21.00;47.10;;;;;;1546078;75;1478;-62
2023/04/03 06:31:01;;;;;;;;;;;21.00;47.10;;;;;;1553896;75;1468;-62
2023/04/03 06:33:03;;;;;;;;;;;21.00;47.10;;;;;;1550898;75;1474;-61
2023/04/03 06:35:06;;;;;;;;;;;21.00;47.10;;;;;;1555418;75;1080;-61
2023/04/03 06:37:09;;;;;;;;;;;21.00;47.10;;;;;;1555170;75;1569;-61
2023/04/03 06:39:13;;;;;;;;;;;21.00;47.10;;;;;;1554428;75;1236;-62
2023/04/03 06:41:16;;;;;;;;;;;20.90;47.10;;;;;;1547366;75;1526;-62
2023/04/03 06:43:18;;;;;;;;;;;21.00;47.10;;;;;;1553664;74;1478;-62
2023/04/03 06:45:20;;;;;;;;;;;20.90;47.00;;;;;;1556991;74;1525;-64
2023/04/03 06:47:22;;;;;;;;;;;21.00;47.10;;;;;;1552393;74;1505;-62
2023/04/03 06:49:23;;;;;;;;;;;20.90;47.10;;;;;;1555122;74;1954;-62
2023/04/03 06:51:27;;;;;;;;;;;20.90;47.10;;;;;;1555279;74;1478;-62
2023/04/03 06:53:29;;;;;;;;;;;20.90;47.10;;;;;;1538826;75;1479;-62
2023/04/03 06:55:31;;;;;;;;;;;20.90;47.10;;;;;;1544719;75;1555;-62
2023/04/03 06:57:33;;;;;;;;;;;20.90;47.00;;;;;;1541841;75;1497;-63
2023/04/03 06:59:36;;;;;;;;;;;20.90;47.00;;;;;;1534179;75;1367;-63
2023/04/03 07:01:38;;;;;;;;;;;20.90;47.10;;;;;;1549080;75;1490;-60
2023/04/03 07:03:39;;;;;;;;;;;20.90;47.00;;;;;;1548633;75;1472;-62
2023/04/03 07:05:44;;;;;;;;;;;20.90;47.00;;;;;;1549197;75;1463;-61
2023/04/03 07:07:45;;;;;;;;;;;20.90;47.00;;;;;;1533346;75;1451;-62
2023/04/03 07:09:47;;;;;;;;;;;21.00;47.00;;;;;;1538618;75;1901;-63
2023/04/03 07:11:49;;;;;;;;;;;21.00;47.00;;;;;;1550296;75;1805;-63
2023/04/03 07:13:51;;;;;;;;;;;20.90;47.00;;;;;;1540916;75;1480;-62
2023/04/03 07:15:53;;;;;;;;;;;21.00;47.00;;;;;;1552728;75;1495;-62
2023/04/03 07:17:55;;;;;;;;;;;20.90;46.90;;;;;;1549184;75;1116;-60
2023/04/03 07:19:57;;;;;;;;;;;21.00;47.00;;;;;;1542946;75;1388;-62
2023/04/03 07:21:59;;;;;;;;;;;20.90;47.00;;;;;;1534678;75;1467;-60
2023/04/03 07:24:01;;;;;;;;;;;20.90;46.90;;;;;;1546327;75;1530;-61
2023/04/03 07:26:03;;;;;;;;;;;20.90;46.90;;;;;;1543809;75;1494;-60
2023/04/03 07:28:05;;;;;;;;;;;20.80;46.80;;;;;;1533871;75;1491;-61
2023/04/03 07:30:07;;;;;;;;;;;20.90;46.90;;;;;;1549562;75;1928;-60
2023/04/03 07:32:09;;;;;;;;;;;20.90;46.90;;;;;;1550907;75;1486;-60
2023/04/03 07:34:11;;;;;;;;;;;20.90;46.90;;;;;;1549742;75;1500;-60
2023/04/03 07:36:15;;;;;;;;;;;20.90;46.90;;;;;;1542954;75;1471;-61
2023/04/03 07:38:18;;;;;;;;;;;21.00;46.90;;;;;;1540253;75;1435;-60
2023/04/03 07:40:19;;;;;;;;;;;21.00;47.00;;;;;;1543829;75;1559;-60
2023/04/03 07:42:21;;;;;;;;;;;20.90;46.90;;;;;;1547188;75;1090;-60
2023/04/03 07:44:23;;;;;;;;;;;20.90;46.90;;;;;;1547801;75;1868;-59
2023/04/03 07:46:25;;;;;;;;;;;20.90;46.90;;;;;;1544489;75;1500;-60
2023/04/03 07:48:27;;;;;;;;;;;20.90;46.90;;;;;;1548472;75;1521;-60
2023/04/03 07:50:31;;;;;;;;;;;20.90;46.90;;;;;;1543901;75;1938;-59
2023/04/03 07:52:32;;;;;;;;;;;20.90;46.90;;;;;;1541718;75;1291;-60
2023/04/03 07:54:34;;;;;;;;;;;20.90;46.90;;;;;;1547127;75;1494;-60
2023/04/03 07:56:36;;;;;;;;;;;21.00;46.90;;;;;;1549905;75;1473;-60
2023/04/03 07:58:38;;;;;;;;;;;20.90;46.90;;;;;;1544429;75;1434;-60
2023/04/03 08:00:40;;;;;;;;;;;20.90;46.80;;;;;;1540068;75;1486;-59
2023/04/03 08:02:42;;;;;;;;;;;21.00;46.90;;;;;;1546313;75;1385;-60
2023/04/03 08:04:44;;;;;;;;;;;20.90;46.80;;;;;;1549985;75;1480;-59
2023/04/03 08:06:46;;;;;;;;;;;20.90;46.80;;;;;;1547261;75;1469;-60
2023/04/03 08:08:48;;;;;;;;;;;21.00;46.90;;;;;;1538177;75;1498;-60
2023/04/03 08:10:53;;;;;;;;;;;21.00;46.80;;;;;;1543003;75;1934;-60
2023/04/03 08:12:55;;;;;;;;;;;20.90;46.80;;;;;;1538630;75;1427;-60
2023/04/03 08:14:57;;;;;;;;;;;21.00;46.80;;;;;;1548769;75;1487;-58
2023/04/03 08:17:00;;;;;;;;;;;21.00;46.80;;;;;;1544021;75;1058;-60
2023/04/03 08:19:02;;;;;;;;;;;20.90;46.80;;;;;;1544254;75;1637;-59
2023/04/03 08:21:07;;;;;;;;;;;20.90;46.70;;;;;;1546804;75;1521;-61
2023/04/03 08:23:09;;;;;;;;;;;20.90;46.70;;;;;;1538570;75;1272;-60
2023/04/03 08:25:11;;;;;;;;;;;21.00;46.80;;;;;;1546601;75;1495;-60
2023/04/03 08:27:13;;;;;;;;;;;20.90;46.80;;;;;;1550482;75;1501;-60
2023/04/03 08:29:15;;;;;;;;;;;20.90;46.80;;;;;;1537810;75;1478;-60
2023/04/03 08:31:18;;;;;;;;;;;20.90;46.70;;;;;;1545702;75;1927;-59
2023/04/03 08:33:20;;;;;;;;;;;20.90;46.70;;;;;;1546155;75;1471;-60
2023/04/03 08:35:22;;;;;;;;;;;21.00;46.70;;;;;;1547399;75;1384;-59
2023/04/03 08:37:23;;;;;;;;;;;20.90;46.80;;;;;;1544482;75;1338;-60
2023/04/03 08:39:25;;;;;;;;;;;20.90;46.70;;;;;;1547739;75;1565;-60
2023/04/03 08:41:32;;;;;;;;;;;20.90;46.70;;;;;;1546796;75;1363;-60
2023/04/03 08:43:38;;;;;;;;;;;20.90;46.70;;;;;;1543776;75;1541;-59
2023/04/03 08:45:45;;;;;;;;;;;20.90;46.70;;;;;;1534944;75;1278;-60
2023/04/03 08:47:52;;;;;;;;;;;20.90;46.80;;;;;;1527028;75;1280;-62
2023/04/03 08:49:55;;;;;;;;;;;20.90;46.80;;;;;;1543575;75;1931;-62
2023/04/03 08:51:57;;;;;;;;;;;20.90;46.80;;;;;;1542214;75;1542;-63
2023/04/03 08:54:03;;;;;;;;;;;20.90;46.80;;;;;;1543256;75;1530;-63
2023/04/03 08:56:06;;;;;;;;;;;20.90;46.80;;;;;;1546066;75;1377;-63
2023/04/03 08:58:09;;;;;;;;;;;20.90;46.90;;;;;;1544559;75;1094;-62
2023/04/03 09:00:16;;;;;;;;;;;20.90;46.90;;;;;;1549920;75;1693;-61
2023/04/03 09:02:20;;;;;;;;;;;20.90;47.00;;;;;;1541740;75;1491;-63
2023/04/03 09:04:22;;;;;;;;;;;20.90;47.00;;;;;;1534342;75;1163;-64
2023/04/03 09:06:30;;;;;;;;;;;20.90;47.00;;;;;;1546983;75;655;-64
2023/04/03 09:08:35;;;;;;;;;;;20.90;47.00;;;;;;1545167;75;1582;-64
2023/04/03 09:10:38;;;;;;;;;;;20.90;47.00;;;;;;1539047;75;1952;-63
2023/04/03 09:12:42;;;;;;;;;;;20.90;47.00;;;;;;1545913;75;711;-61
2023/04/03 09:14:54;;;;;;;;;;;20.90;47.00;;;;;;1534086;75;1163;-65
2023/04/03 09:17:00;;;;;;;;;;;20.90;47.90;;;;;;1548138;75;974;-62
2023/04/03 09:19:03;;;;;;;;;;;20.80;47.60;;;;;;1539062;75;768;-66
2023/04/03 09:21:10;;;;;;;;;;;20.80;47.60;;;;;;1525937;75;1004;-64
2023/04/03 09:23:23;;;;;;;;;;;20.80;47.50;;;;;;1546683;75;1596;-63
2023/04/03 09:25:26;;;;;;;;;;;20.90;47.50;;;;;;1538696;75;699;-63
2023/04/03 09:27:28;;;;;;;;;;;20.80;47.20;;;;;;1540665;75;1015;-64
2023/04/03 09:29:30;;;;;;;;;;;20.80;47.10;;;;;;1526360;75;712;-63
2023/04/03 09:31:39;;;;;;;;;;;20.90;46.90;;;;;;1544776;75;1901;-64
2023/04/03 09:33:42;;;;;;;;;;;21.00;46.80;;;;;;1543327;75;1151;-63
2023/04/03 09:35:44;;;;;;;;;;;20.90;46.70;;;;;;1549011;75;1543;-63
2023/04/03 09:37:46;;;;;;;;;;;21.00;46.60;;;;;;1539516;75;691;-65
2023/04/03 09:39:50;;;;;;;;;;;20.90;46.60;;;;;;1542921;75;745;-65
2023/04/03 09:41:56;;;;;;;;;;;21.00;46.50;;;;;;1525880;75;939;-68
2023/04/03 09:43:58;;;;;;;;;;;21.00;46.40;;;;;;1518463;75;1157;-66
2023/04/03 09:46:18;;;;;;;;;;;20.90;46.20;;;;;;1545146;75;659;-66
2023/04/03 09:48:21;;;;;;;;;;;21.00;46.00;;;;;;1541752;75;767;-67
2023/04/03 09:50:23;;;;;;;;;;;20.90;46.00;;;;;;1538182;75;1934;-66
2023/04/03 09:52:26;;;;;;;;;;;20.90;46.00;;;;;;1544097;75;697;-67
2023/04/03 09:54:32;;;;;;;;;;;21.00;46.00;;;;;;1539352;75;1207;-67
2023/04/03 09:56:34;;;;;;;;;;;21.00;46.00;;;;;;1538443;75;735;-70
2023/04/03 09:58:40;;;;;;;;;;;20.90;46.00;;;;;;1540375;75;741;-66
2023/04/03 10:00:42;;;;;;;;;;;21.00;45.90;;;;;;1547560;75;701;-66
2023/04/03 10:02:44;;;;;;;;;;;21.00;45.90;;;;;;1546740;75;710;-66
2023/04/03 10:04:46;;;;;;;;;;;21.00;45.90;;;;;;1549788;75;1587;-66
2023/04/03 10:06:49;;;;;;;;;;;20.90;45.90;;;;;;1538788;75;717;-67
2023/04/03 10:09:04;;;;;;;;;;;20.90;45.90;;;;;;1537890;75;596;-66
2023/04/03 10:11:12;;;;;;;;;;;20.90;45.90;;;;;;1544504;75;1925;-67
2023/04/03 10:13:19;;;;;;;;;;;21.00;45.90;;;;;;1539056;75;1142;-66
2023/04/03 10:15:21;;;;;;;;;;;20.90;45.90;;;;;;1541894;75;781;-67
2023/04/03 10:17:24;;;;;;;;;;;21.00;45.90;;;;;;1535728;75;723;-67
2023/04/03 10:19:37;;;;;;;;;;;20.90;45.80;;;;;;1548274;75;1549;-66
2023/04/03 10:21:53;;;;;;;;;;;21.00;45.80;;;;;;1534245;75;767;-66
2023/04/03 10:23:59;;;;;;;;;;;20.90;45.90;;;;;;1548641;75;1192;-66
2023/04/03 10:26:04;;;;;;;;;;;20.90;45.80;;;;;;1545643;75;1126;-66
2023/04/03 10:28:10;;;;;;;;;;;20.90;45.90;;;;;;1545424;75;693;-66
2023/04/03 10:30:29;;;;;;;;;;;21.00;45.80;;;;;;1523713;75;983;-66
2023/04/03 10:32:33;;;;;;;;;;;21.00;45.80;;;;;;1520774;76;1598;-67
2023/04/03 10:34:42;;;;;;;;;;;20.90;45.80;;;;;;1536019;76;1100;-66
2023/04/03 10:36:46;;;;;;;;;;;20.90;45.80;;;;;;1535531;75;787;-66
2023/04/03 10:38:49;;;;;;;;;;;20.90;45.80;;;;;;1528252;75;696;-66
2023/04/03 10:40:58;;;;;;;;;;;20.90;45.80;;;;;;1530982;75;966;-66
2023/04/03 10:43:02;;;;;;;;;;;21.00;45.80;;;;;;1543968;75;1117;-66
2023/04/03 10:45:08;;;;;;;;;;;20.90;45.80;;;;;;1549053;75;1029;-66
2023/04/03 10:47:20;;;;;;;;;;;21.00;45.80;;;;;;1527183;75;1680;-66
2023/04/03 10:49:27;;;;;;;;;;;20.90;45.70;;;;;;1540924;75;746;-67
2023/04/03 10:51:34;;;;;;;;;;;20.90;45.70;;;;;;1530003;75;1939;-67
2023/04/03 10:53:44;;;;;;;;;;;20.90;45.80;;;;;;1550784;75;1165;-67
2023/04/03 10:56:02;;;;;;;;;;;20.90;45.70;;;;;;1548684;75;1113;-70
2023/04/03 10:58:04;;;;;;;;;;;21.00;45.80;;;;;;1546656;75;707;-66
2023/04/03 11:00:09;;;;;;;;;;;20.80;45.60;;;;;;1545416;75;1545;-66
2023/04/03 11:02:16;;;;;;;;;;;20.90;45.70;;;;;;1560730;75;1073;-66
2023/04/03 11:04:19;;;;;;;;;;;20.90;45.70;;;;;;1559681;75;1194;-66
2023/04/03 11:06:23;;;;;;;;;;;20.90;45.70;;;;;;1553939;75;692;-66
2023/04/03 11:08:26;;;;;;;;;;;20.90;45.70;;;;;;1556412;75;777;-66
2023/04/03 11:10:41;;;;;;;;;;;20.90;45.70;;;;;;1563170;75;842;-66
2023/04/03 11:12:44;;;;;;;;;;;20.90;45.70;;;;;;1555481;75;697;-66
2023/04/03 11:14:47;;;;;;;;;;;20.90;45.70;;;;;;1565355;75;1514;-67
2023/04/03 11:16:50;;;;;;;;;;;20.90;45.70;;;;;;1555717;75;730;-66
2023/04/03 11:18:54;;;;;;;;;;;20.90;45.70;;;;;;1546630;75;844;-68
2023/04/03 11:21:03;;;;;;;;;;;20.90;45.70;;;;;;1549726;75;710;-67
2023/04/03 11:23:07;;;;;;;;;;;20.90;45.70;;;;;;1556324;75;1177;-66
2023/04/03 11:25:11;;;;;;;;;;;20.90;45.70;;;;;;1538762;75;1016;-67
2023/04/03 11:27:22;;;;;;;;;;;20.90;45.70;;;;;;1560123;75;773;-66
2023/04/03 11:29:28;;;;;;;;;;;20.90;45.60;;;;;;1547440;75;1606;-66
2023/04/03 11:31:38;;;;;;;;;;;20.90;45.70;;;;;;1551377;75;1942;-67
2023/04/03 11:33:41;;;;;;;;;;;20.90;45.60;;;;;;1540375;75;1145;-66
2023/04/03 11:35:44;;;;;;;;;;;20.90;45.60;;;;;;1547441;75;684;-66
2023/04/03 11:37:46;;;;;;;;;;;20.90;45.60;;;;;;1557397;75;715;-67
2023/04/03 11:39:50;;;;;;;;;;;20.80;45.50;;;;;;1510039;76;668;-66
2023/04/03 11:41:52;;;;;;;;;;;20.90;45.60;;;;;;1555254;75;1035;-66
2023/04/03 11:43:58;;;;;;;;;;;20.80;45.50;;;;;;1551264;75;1669;-66
2023/04/03 11:46:00;;;;;;;;;;;20.90;45.60;;;;;;1539105;75;696;-66
2023/04/03 11:48:03;;;;;;;;;;;20.90;45.60;;;;;;1547298;75;776;-66
2023/04/03 11:50:06;;;;;;;;;;;20.90;45.60;;;;;;1545146;75;741;-66
2023/04/03 11:52:10;;;;;;;;;;;20.80;45.50;;;;;;1541824;75;1907;-66
2023/04/03 11:54:30;;;;;;;;;;;20.80;45.50;;;;;;1541362;75;1156;-66
2023/04/03 11:56:32;;;;;;;;;;;20.90;45.60;;;;;;1547394;75;1554;-66
2023/04/03 11:58:34;;;;;;;;;;;20.70;45.50;;;;;;1562269;75;730;-66
2023/04/03 12:00:47;;;;;;;;;;;20.70;45.50;;;;;;1548811;76;709;-66
2023/04/03 12:02:49;;;;;;;;;;;20.80;45.50;;;;;;1539467;75;661;-66
2023/04/03 12:05:09;;;;;;;;;;;20.80;45.50;;;;;;1559566;75;743;-66
2023/04/03 12:07:18;;;;;;;;;;;20.80;45.50;;;;;;1554263;75;689;-66
2023/04/03 12:09:25;;;;;;;;;;;20.80;45.50;;;;;;1545468;75;714;-66
2023/04/03 12:11:28;;;;;;;;;;;20.90;45.60;;;;;;1559436;75;1905;-66
2023/04/03 12:13:30;;;;;;;;;;;20.90;45.60;;;;;;1560803;75;1133;-66